CSCL Long Beach — VRCZ7 — position and weather

sailwx.info

Track history (hours):
 
Tides and Currents Weather Stations Pressure Air Temp Water Temp Dewpoint Dewpoint Depression Visibility Wind Speed Wind Dir Waves Ship Positions

CSCL Long Beach

Last reported at 2015-Apr-21 02:06 UTC. Time now 2015-Apr-21 06:38 UTC.
Position N 22°57' E 117°04'.

Length 336.7 m; beam 45.6 m; draft 15 m.

Type: Cargo ship. MMSI: 477883900.

Date/timePositionNaut miles runAvg speedWind from/ knotsBaromVisibWave heightAir tempDewpointWater temp
2015-Apr-21 02:06N 22°57' E 117°04'916.3
2015-Apr-21 01:33N 23°03' E 117°12'7418.1
2015-Apr-20 21:29N 23°46' E 118°17'2021.1
2015-Apr-20 20:33N 23°59' E 118°33'2721.4
2015-Apr-20 19:18N 24°17' E 118°55'1821.3
2015-Apr-20 18:28N 24°28' E 119°10'34617.4
2015-Apr-19 22:33N 29°25' E 122°30'1515.4
2015-Apr-19 21:33N 29°40' E 122°30'1414.4
2015-Apr-19 20:33N 29°48' E 122°15'1312.7
2015-Apr-19 19:33N 29°55' E 122°04'7 6.8
2015-Apr-19 18:33N 29°56' E 121°56'0 0.0
2015-Apr-19 17:30N 29°56' E 121°56'0 0.0
2015-Apr-19 16:27N 29°56' E 121°56'0 0.0
2015-Apr-19 15:21N 29°56' E 121°56'0 0.0
2015-Apr-19 13:33N 29°56' E 121°56'0 0.0
2015-Apr-19 12:12N 29°56' E 121°56'0 0.0
2015-Apr-19 11:09N 29°56' E 121°56'0 0.0
2015-Apr-19 10:21N 29°56' E 121°56'0 0.0
2015-Apr-19 08:03N 29°56' E 121°56'0 0.0
2015-Apr-19 07:33N 29°56' E 121°56'1 1.3
2015-Apr-19 06:33N 29°57' E 121°57'1110.9
2015-Apr-19 05:33N 29°56' E 122°09'1211.5
2015-Apr-19 04:33N 29°46' E 122°17'1010.1
2015-Apr-19 03:33N 29°44' E 122°29'3 0.9
2015-Apr-19 00:10N 29°46' E 122°32'0 0.1
2015-Apr-18 21:28N 29°46' E 122°32'0 0.1
2015-Apr-18 20:19N 29°46' E 122°32'4 5.8
2015-Apr-18 19:32N 29°42' E 122°34'4 4.0
2015-Apr-18 18:33N 29°42' E 122°38'4 4.4
2015-Apr-18 17:34N 29°45' E 122°42'46 8.6
2015-Apr-18 12:09N 30°30' E 122°30'711.8
2015-Apr-18 11:32N 30°32' E 122°22'1211.9
2015-Apr-18 10:34N 30°34' E 122°09'5 0.8
2015-Apr-18 04:16N 30°37' E 122°04'0 0.0
2015-Apr-18 03:28N 30°37' E 122°04'0 0.0
2015-Apr-18 01:26N 30°37' E 122°04'5 6.0
2015-Apr-18 00:33N 30°34' E 122°09'1211.5
2015-Apr-17 23:31N 30°33' E 122°23'8 7.8
2015-Apr-17 22:26N 30°29' E 122°32'0 0.1
2015-Apr-17 17:26N 30°29' E 122°32'5 5.8
2015-Apr-17 16:30N 30°31' E 122°26'6 5.9
2015-Apr-17 15:32N 30°31' E 122°33'6 0.3
2015-Apr-16 22:11N 30°27' E 122°38'0 0.2
2015-Apr-16 21:20N 30°27' E 122°38'0 0.2
2015-Apr-16 20:32N 30°27' E 122°38'0 0.1
2015-Apr-16 19:29N 30°27' E 122°38'0 0.0
2015-Apr-16 18:32N 30°27' E 122°38'0 0.0
2015-Apr-16 17:26N 30°27' E 122°38'0 0.0
2015-Apr-16 16:29N 30°27' E 122°38'5 5.7
2015-Apr-16 15:32N 30°24' E 122°44'1313.6
2015-Apr-16 14:33N 30°23' E 122°59'1514.7
2015-Apr-16 13:31N 30°31' E 123°14'1814.5
2015-Apr-16 12:17N 30°46' E 123°24'1114.6
2015-Apr-16 11:33N 30°56' E 123°28'  
2015-Apr-12 21:11N 35°57' E 120°56'1015.7
2015-Apr-12 20:34N 35°57' E 120°44'1515.3
2015-Apr-12 19:33N 36°00' E 120°25'1110.6
2015-Apr-12 18:33N 36°00' E 120°12'0 0.1
2015-Apr-12 15:25N 36°00' E 120°12'0 0.0
2015-Apr-12 14:31N 36°00' E 120°12'0 0.0
2015-Apr-12 13:13N 36°00' E 120°12'0 0.0
2015-Apr-12 10:31N 36°00' E 120°12'0 0.0
2015-Apr-12 09:13N 36°00' E 120°12'0 0.0
2015-Apr-12 07:19N 36°00' E 120°12'0 0.0
2015-Apr-12 06:19N 36°00' E 120°12'0 0.0
2015-Apr-12 05:31N 36°00' E 120°12'0 0.0
2015-Apr-12 04:16N 36°00' E 120°12'0 0.0
2015-Apr-12 03:33N 36°00' E 120°12'6 5.9
2015-Apr-12 02:33N 36°02' E 120°19'6 5.6
2015-Apr-12 01:33N 36°01' E 120°26'5 5.2
2015-Apr-12 00:33N 35°59' E 120°32'8 8.4
2015-Apr-11 23:33N 35°57' E 120°42'1414.3
2015-Apr-11 22:33N 35°46' E 120°53'5 4.9
2015-Apr-11 21:28N 35°42' E 120°58'0 0.0
2015-Apr-11 20:28N 35°42' E 120°58'0 0.0
2015-Apr-11 19:22N 35°42' E 120°58'0 0.1
2015-Apr-11 18:31N 35°42' E 120°58'0 0.0
2015-Apr-11 17:28N 35°42' E 120°58'0 0.0
2015-Apr-11 16:28N 35°42' E 120°58'0 0.0
2015-Apr-11 15:10N 35°42' E 120°58'0 0.0
2015-Apr-11 07:04N 35°42' E 120°58'0 0.1
2015-Apr-11 06:10N 35°42' E 120°58'0 0.0
2015-Apr-11 05:28N 35°42' E 120°58'0 0.0
2015-Apr-11 03:22N 35°42' E 120°58'0 0.1
2015-Apr-11 02:28N 35°42' E 120°58'  
Track history (hours):
 
Tides and Currents Weather Stations Pressure Air Temp Water Temp Dewpoint Dewpoint Depression Visibility Wind Speed Wind Dir Waves Ship Positions

CSCL Long Beach

Last reported at 2015-Apr-21 02:06 UTC. Time now 2015-Apr-21 06:38 UTC.
Position N 22°57' E 117°04'.

Length 336.7 m; beam 45.6 m; draft 15 m.

Type: Cargo ship. MMSI: 477883900.

Date/timePositionNaut miles runAvg speedWind from/ knotsBaromVisibWave heightAir tempDewpointWater temp
2015-Apr-21 02:06N 22°57' E 117°04'916.3
2015-Apr-21 01:33N 23°03' E 117°12'7418.1
2015-Apr-20 21:29N 23°46' E 118°17'2021.1
2015-Apr-20 20:33N 23°59' E 118°33'2721.4
2015-Apr-20 19:18N 24°17' E 118°55'1821.3
2015-Apr-20 18:28N 24°28' E 119°10'34617.4
2015-Apr-19 22:33N 29°25' E 122°30'1515.4
2015-Apr-19 21:33N 29°40' E 122°30'1414.4
2015-Apr-19 20:33N 29°48' E 122°15'1312.7
2015-Apr-19 19:33N 29°55' E 122°04'7 6.8
2015-Apr-19 18:33N 29°56' E 121°56'0 0.0
2015-Apr-19 17:30N 29°56' E 121°56'0 0.0
2015-Apr-19 16:27N 29°56' E 121°56'0 0.0
2015-Apr-19 15:21N 29°56' E 121°56'0 0.0
2015-Apr-19 13:33N 29°56' E 121°56'0 0.0
2015-Apr-19 12:12N 29°56' E 121°56'0 0.0
2015-Apr-19 11:09N 29°56' E 121°56'0 0.0
2015-Apr-19 10:21N 29°56' E 121°56'0 0.0
2015-Apr-19 08:03N 29°56' E 121°56'0 0.0
2015-Apr-19 07:33N 29°56' E 121°56'1 1.3
2015-Apr-19 06:33N 29°57' E 121°57'1110.9
2015-Apr-19 05:33N 29°56' E 122°09'1211.5
2015-Apr-19 04:33N 29°46' E 122°17'1010.1
2015-Apr-19 03:33N 29°44' E 122°29'3 0.9
2015-Apr-19 00:10N 29°46' E 122°32'0 0.1
2015-Apr-18 21:28N 29°46' E 122°32'0 0.1
2015-Apr-18 20:19N 29°46' E 122°32'4 5.8
2015-Apr-18 19:32N 29°42' E 122°34'4 4.0
2015-Apr-18 18:33N 29°42' E 122°38'4 4.4
2015-Apr-18 17:34N 29°45' E 122°42'46 8.6
2015-Apr-18 12:09N 30°30' E 122°30'711.8
2015-Apr-18 11:32N 30°32' E 122°22'1211.9
2015-Apr-18 10:34N 30°34' E 122°09'5 0.8
2015-Apr-18 04:16N 30°37' E 122°04'0 0.0
2015-Apr-18 03:28N 30°37' E 122°04'0 0.0
2015-Apr-18 01:26N 30°37' E 122°04'5 6.0
2015-Apr-18 00:33N 30°34' E 122°09'1211.5
2015-Apr-17 23:31N 30°33' E 122°23'8 7.8
2015-Apr-17 22:26N 30°29' E 122°32'0 0.1
2015-Apr-17 17:26N 30°29' E 122°32'5 5.8
2015-Apr-17 16:30N 30°31' E 122°26'6 5.9
2015-Apr-17 15:32N 30°31' E 122°33'6 0.3
2015-Apr-16 22:11N 30°27' E 122°38'0 0.2
2015-Apr-16 21:20N 30°27' E 122°38'0 0.2
2015-Apr-16 20:32N 30°27' E 122°38'0 0.1
2015-Apr-16 19:29N 30°27' E 122°38'0 0.0
2015-Apr-16 18:32N 30°27' E 122°38'0 0.0
2015-Apr-16 17:26N 30°27' E 122°38'0 0.0
2015-Apr-16 16:29N 30°27' E 122°38'5 5.7
2015-Apr-16 15:32N 30°24' E 122°44'1313.6
2015-Apr-16 14:33N 30°23' E 122°59'1514.7
2015-Apr-16 13:31N 30°31' E 123°14'1814.5
2015-Apr-16 12:17N 30°46' E 123°24'1114.6
2015-Apr-16 11:33N 30°56' E 123°28'  
2015-Apr-12 21:11N 35°57' E 120°56'1015.7
2015-Apr-12 20:34N 35°57' E 120°44'1515.3
2015-Apr-12 19:33N 36°00' E 120°25'1110.6
2015-Apr-12 18:33N 36°00' E 120°12'0 0.1
2015-Apr-12 15:25N 36°00' E 120°12'0 0.0
2015-Apr-12 14:31N 36°00' E 120°12'0 0.0
2015-Apr-12 13:13N 36°00' E 120°12'0 0.0
2015-Apr-12 10:31N 36°00' E 120°12'0 0.0
2015-Apr-12 09:13N 36°00' E 120°12'0 0.0
2015-Apr-12 07:19N 36°00' E 120°12'0 0.0
2015-Apr-12 06:19N 36°00' E 120°12'0 0.0
2015-Apr-12 05:31N 36°00' E 120°12'0 0.0
2015-Apr-12 04:16N 36°00' E 120°12'0 0.0
2015-Apr-12 03:33N 36°00' E 120°12'6 5.9
2015-Apr-12 02:33N 36°02' E 120°19'6 5.6
2015-Apr-12 01:33N 36°01' E 120°26'5 5.2
2015-Apr-12 00:33N 35°59' E 120°32'8 8.4
2015-Apr-11 23:33N 35°57' E 120°42'1414.3
2015-Apr-11 22:33N 35°46' E 120°53'5 4.9
2015-Apr-11 21:28N 35°42' E 120°58'0 0.0
2015-Apr-11 20:28N 35°42' E 120°58'0 0.0
2015-Apr-11 19:22N 35°42' E 120°58'0 0.1
2015-Apr-11 18:31N 35°42' E 120°58'0 0.0
2015-Apr-11 17:28N 35°42' E 120°58'0 0.0
2015-Apr-11 16:28N 35°42' E 120°58'0 0.0
2015-Apr-11 15:10N 35°42' E 120°58'0 0.0
2015-Apr-11 07:04N 35°42' E 120°58'0 0.1
2015-Apr-11 06:10N 35°42' E 120°58'0 0.0
2015-Apr-11 05:28N 35°42' E 120°58'0 0.0
2015-Apr-11 03:22N 35°42' E 120°58'0 0.1
2015-Apr-11 02:28N 35°42' E 120°58'  

Dump ship's entire track history